Terminal Aerodrome Forecast
Issued by NWS

Home | Current Version | Previous Version | Text Only | Print | Product List | Glossary On
Versions: 1 2 3 4 5 6 7 8 9 10 11 12 13 14 15
000
FTUS44 KLIX 281729
TAFMCB
TAF
KMCB 281729Z 2818/2918 11007KT P6SM FEW035 FEW060 SCT250
     FM290000 VRB03KT P6SM FEW050 BKN150
     FM291700 09008KT P6SM SCT050 SCT200=

USA.gov is the U.S. government's official web portal to all federal, state and local government web resources and services.